createdAt,value
2019-05-22T00:00:41.187Z,97735.86
2019-05-22T00:03:26.294Z,97733.70
2019-05-22T00:05:56.433Z,97735.86
2019-05-22T00:08:25.306Z,97745.80
2019-05-22T00:10:55.847Z,97747.40
2019-05-22T00:13:25.949Z,97750.34
2019-05-22T00:15:56.474Z,97751.61
2019-05-22T00:18:26.904Z,97753.09
2019-05-22T00:20:55.818Z,97758.84
2019-05-22T00:23:25.934Z,97759.64
2019-05-22T00:25:54.392Z,97758.84
2019-05-22T00:28:24.413Z,97753.39
2019-05-22T00:30:52.982Z,97756.34
2019-05-22T00:33:22.167Z,97758.30
2019-05-22T00:35:52.713Z,97760.89
2019-05-22T00:38:22.660Z,97761.19
2019-05-22T00:40:57.276Z,97756.89
2019-05-22T00:43:30.497Z,97754.69
2019-05-22T00:45:59.875Z,97756.84
2019-05-22T00:48:29.859Z,97753.84
2019-05-22T00:51:15.060Z,97758.19
2019-05-22T00:54:00.505Z,97755.55
2019-05-22T00:56:37.010Z,97750.09
2019-05-22T00:59:19.567Z,97752.80
2019-05-22T01:02:05.325Z,97751.45
2019-05-22T01:04:38.848Z,97760.59
2019-05-22T01:07:12.804Z,97748.37
2019-05-22T01:09:45.715Z,97755.66
2019-05-22T01:12:30.813Z,97755.50
2019-05-22T01:15:03.721Z,97754.59
2019-05-22T01:17:35.801Z,97757.99
2019-05-22T01:20:06.951Z,97759.16
2019-05-22T01:22:37.195Z,97759.11
2019-05-22T01:25:06.813Z,97764.27
2019-05-22T01:27:36.713Z,97763.11
2019-05-22T01:30:08.423Z,97761.70
2019-05-22T01:32:47.838Z,97763.11
2019-05-22T01:35:16.629Z,97710.95
2019-05-22T01:37:45.007Z,97755.19
2019-05-22T01:40:20.859Z,97760.89
2019-05-22T01:42:51.894Z,97757.56
2019-05-22T01:45:21.948Z,97761.02
2019-05-22T01:47:57.328Z,97761.86
2019-05-22T01:50:41.399Z,97763.21
2019-05-22T01:53:11.550Z,97755.41
2019-05-22T01:55:41.636Z,97759.24
2019-05-22T01:58:12.535Z,97761.86
2019-05-22T02:00:42.149Z,97757.56
2019-05-22T02:03:11.572Z,97768.14
2019-05-22T02:05:41.134Z,97766.94
2019-05-22T02:08:10.635Z,97758.55
2019-05-22T02:10:42.564Z,97763.39
2019-05-22T02:13:11.564Z,97767.88
2019-05-22T02:15:41.542Z,97762.09
2019-05-22T02:18:17.782Z,97762.48
2019-05-22T02:20:46.796Z,97755.69
2019-05-22T02:23:17.008Z,97758.64
2019-05-22T02:25:45.649Z,97760.99
2019-05-22T02:28:14.836Z,97770.09
2019-05-22T02:30:44.018Z,97765.54
2019-05-22T02:33:14.169Z,97766.34
2019-05-22T02:35:42.962Z,97769.09
2019-05-22T02:38:12.308Z,97769.34
2019-05-22T02:40:42.137Z,97773.13
2019-05-22T02:43:11.222Z,97771.48
2019-05-22T02:45:39.784Z,97770.19
2019-05-22T02:48:10.488Z,97766.23
2019-05-22T02:50:39.326Z,97769.44
2019-05-22T02:53:10.452Z,97772.23
2019-05-22T02:55:40.584Z,97769.31
2019-05-22T02:58:10.617Z,97775.80
2019-05-22T03:01:00.430Z,97777.70
2019-05-22T03:03:29.128Z,97775.42
2019-05-22T03:05:57.701Z,97772.81
2019-05-22T03:08:29.242Z,97777.03
2019-05-22T03:10:57.700Z,97781.08
2019-05-22T03:13:57.660Z,97772.38
2019-05-22T03:16:28.163Z,97779.38
2019-05-22T03:19:08.269Z,97786.17
2019-05-22T03:21:28.585Z,97784.38
2019-05-22T03:23:57.098Z,97780.83
2019-05-22T03:26:40.596Z,97789.30
2019-05-22T03:29:09.614Z,97786.09
2019-05-22T03:31:38.483Z,97789.05
2019-05-22T03:34:06.978Z,97788.30
2019-05-22T03:36:35.727Z,97790.19
2019-05-22T03:39:05.968Z,97798.03
2019-05-22T03:41:35.798Z,97795.03
2019-05-22T03:44:04.877Z,97792.89
2019-05-22T03:46:36.997Z,97797.48
2019-05-22T03:49:05.481Z,97803.38
2019-05-22T03:51:34.999Z,97804.39
2019-05-22T03:54:03.611Z,97808.11
2019-05-22T03:56:32.645Z,97809.16
2019-05-22T03:59:02.569Z,97805.36
2019-05-22T04:01:32.670Z,97806.66
2019-05-22T04:04:02.585Z,97803.59
2019-05-22T04:06:32.753Z,97811.13
2019-05-22T04:09:05.899Z,97805.19
2019-05-22T04:11:38.649Z,97807.38
2019-05-22T04:14:07.266Z,97816.28
2019-05-22T04:16:35.914Z,97816.33
2019-05-22T04:19:05.110Z,97824.46
2019-05-22T04:21:33.402Z,97823.02
2019-05-22T04:24:02.777Z,97822.56
2019-05-22T04:26:32.861Z,97823.95
2019-05-22T04:29:01.790Z,97829.48
2019-05-22T04:31:49.805Z,97829.81
2019-05-22T04:34:20.757Z,97829.91
2019-05-22T04:36:50.170Z,97829.98
2019-05-22T04:39:24.260Z,97828.59
2019-05-22T04:41:53.919Z,97827.41
2019-05-22T04:44:22.569Z,97833.31
2019-05-22T04:46:51.065Z,97834.04
2019-05-22T04:49:19.519Z,97830.95
2019-05-22T04:51:48.035Z,97833.02
2019-05-22T04:54:18.025Z,97835.05
2019-05-22T04:56:47.361Z,97841.66
2019-05-22T04:59:16.357Z,97847.43
2019-05-22T05:01:45.833Z,97846.99
2019-05-22T05:04:15.076Z,97845.47
2019-05-22T05:06:45.550Z,97851.81
2019-05-22T05:09:15.755Z,97849.02
2019-05-22T05:11:44.492Z,97854.30
2019-05-22T05:14:12.909Z,97856.69
2019-05-22T05:16:42.425Z,97857.33
2019-05-22T05:19:10.821Z,97861.92
2019-05-22T05:21:39.234Z,97861.47
2019-05-22T05:24:07.632Z,97864.77
2019-05-22T05:26:38.091Z,97861.02
2019-05-22T05:29:07.834Z,97862.07
2019-05-22T05:31:36.335Z,97862.66
2019-05-22T05:34:19.859Z,97863.22
2019-05-22T05:36:48.684Z,97862.29
2019-05-22T05:39:40.122Z,97862.39
2019-05-22T05:42:08.483Z,97866.48
2019-05-22T05:44:37.669Z,97865.43
2019-05-22T05:47:07.288Z,97863.70
2019-05-22T05:49:35.915Z,97865.34
2019-05-22T05:52:07.354Z,97862.60
2019-05-22T05:54:36.936Z,97871.30
2019-05-22T05:57:31.437Z,97871.59
2019-05-22T05:59:59.912Z,97873.40
2019-05-22T06:02:28.349Z,97874.29
2019-05-22T06:04:57.000Z,97873.83
2019-05-22T06:07:25.463Z,97872.54
2019-05-22T06:09:57.154Z,97865.97
2019-05-22T06:12:25.538Z,97875.22
2019-05-22T06:14:53.864Z,97880.95
2019-05-22T06:17:32.634Z,97877.80
2019-05-22T06:20:09.867Z,97875.81
2019-05-22T06:22:38.779Z,97878.52
2019-05-22T06:25:08.675Z,97888.32
2019-05-22T06:27:41.741Z,97883.66
2019-05-22T06:30:14.225Z,97879.66
2019-05-22T06:33:12.207Z,97887.27
2019-05-22T06:35:42.374Z,97891.27
2019-05-22T06:38:38.967Z,97895.16
2019-05-22T06:41:07.332Z,97898.33
2019-05-22T06:43:38.906Z,97896.02
2019-05-22T06:46:07.488Z,97898.92
2019-05-22T06:48:35.960Z,97901.47
2019-05-22T06:51:18.540Z,97896.86
2019-05-22T06:53:34.663Z,97904.83
2019-05-22T06:56:03.054Z,97907.83
2019-05-22T06:58:31.637Z,97905.78
2019-05-22T07:01:00.161Z,97911.48
2019-05-22T07:03:28.544Z,97904.84
2019-05-22T07:05:57.233Z,97902.52
2019-05-22T07:08:25.775Z,97902.92
2019-05-22T07:10:54.469Z,97899.11
2019-05-22T07:13:23.669Z,97898.11
2019-05-22T07:15:52.333Z,97899.42
2019-05-22T07:18:23.265Z,97900.09
2019-05-22T07:20:53.138Z,97903.85
2019-05-22T07:23:23.507Z,97899.75
2019-05-22T07:25:52.898Z,97897.68
2019-05-22T07:28:23.339Z,97903.54
2019-05-22T07:30:52.661Z,97905.13
2019-05-22T07:33:22.140Z,97911.59
2019-05-22T07:36:08.617Z,97902.77
2019-05-22T07:38:21.756Z,97905.56
2019-05-22T07:40:51.670Z,97905.52
2019-05-22T07:43:21.429Z,97905.20
2019-05-22T07:45:51.847Z,97912.63
2019-05-22T07:48:21.240Z,97913.11
2019-05-22T07:50:50.121Z,97914.34
2019-05-22T07:53:18.592Z,97916.19
2019-05-22T07:55:47.790Z,97913.61
2019-05-22T07:58:17.752Z,97914.41
2019-05-22T08:00:55.072Z,97907.95
2019-05-22T08:03:25.287Z,97912.43
2019-05-22T08:05:56.232Z,97913.67
2019-05-22T08:08:25.622Z,97912.41
2019-05-22T08:10:55.249Z,97920.70
2019-05-22T08:13:24.405Z,97915.63
2019-05-22T08:15:52.693Z,97916.19
2019-05-22T08:18:21.876Z,97918.23
2019-05-22T08:20:50.465Z,97925.41
2019-05-22T08:23:19.850Z,97918.62
2019-05-22T08:25:48.443Z,97919.52
2019-05-22T08:28:17.986Z,97918.13
2019-05-22T08:30:46.364Z,97923.69
2019-05-22T08:33:17.230Z,97924.39
2019-05-22T08:35:45.867Z,97924.19
2019-05-22T08:38:14.795Z,97926.59
2019-05-22T08:40:43.456Z,97922.47
2019-05-22T08:43:12.714Z,97926.61
2019-05-22T08:45:41.040Z,97921.81
2019-05-22T08:48:09.795Z,97932.59
2019-05-22T08:50:41.722Z,97935.16
2019-05-22T08:53:13.508Z,97937.66
2019-05-22T08:55:42.312Z,97939.16
2019-05-22T08:58:11.481Z,97932.94
2019-05-22T09:00:39.909Z,97942.11
2019-05-22T09:03:09.621Z,97939.65
2019-05-22T09:05:38.193Z,97932.04
2019-05-22T09:08:06.637Z,97937.56
2019-05-22T09:10:35.403Z,97940.30
2019-05-22T09:13:04.195Z,97944.52
2019-05-22T09:15:33.558Z,97860.73
2019-05-22T09:18:02.809Z,97940.25
2019-05-22T09:20:47.752Z,97931.65
2019-05-22T09:23:01.931Z,97932.77
2019-05-22T09:25:32.050Z,97929.50
2019-05-22T09:28:00.697Z,97930.55
2019-05-22T09:30:29.869Z,97938.30
2019-05-22T09:32:58.844Z,97940.22
2019-05-22T09:35:27.332Z,97940.58
2019-05-22T09:37:57.114Z,97939.33
2019-05-22T09:40:25.712Z,97934.45
2019-05-22T09:42:54.317Z,97939.55
2019-05-22T09:45:22.764Z,97947.20
2019-05-22T09:47:51.428Z,97950.39
2019-05-22T09:50:21.145Z,97947.19
2019-05-22T09:52:57.780Z,97945.27
2019-05-22T09:55:20.182Z,97946.26
2019-05-22T09:57:48.780Z,97952.84
2019-05-22T10:00:18.277Z,97952.39
2019-05-22T10:02:46.860Z,97955.39
2019-05-22T10:05:16.382Z,97961.52
2019-05-22T10:07:59.809Z,97961.03
2019-05-22T10:10:17.237Z,97960.77
2019-05-22T10:12:45.560Z,97953.45
2019-05-22T10:15:14.588Z,97956.90
2019-05-22T10:17:49.319Z,97962.52
2019-05-22T10:20:18.837Z,97960.88
2019-05-22T10:22:47.465Z,97963.81
2019-05-22T10:25:17.265Z,97963.27
2019-05-22T10:27:47.589Z,97961.19
2019-05-22T10:30:21.419Z,97957.91
2019-05-22T10:32:50.157Z,97958.37
2019-05-22T10:35:22.236Z,97967.44
2019-05-22T10:37:50.823Z,97964.92
2019-05-22T10:40:20.044Z,97962.77
2019-05-22T10:42:48.654Z,97965.02
2019-05-22T10:45:17.207Z,97966.07
2019-05-22T10:47:45.911Z,97972.38
2019-05-22T10:50:14.643Z,97966.61
2019-05-22T10:52:43.443Z,97966.17
2019-05-22T10:55:13.029Z,97975.52
2019-05-22T10:57:42.651Z,97973.41
2019-05-22T11:00:12.957Z,97973.18
2019-05-22T11:02:41.885Z,97969.73
2019-05-22T11:05:10.537Z,97964.70
2019-05-22T11:07:39.049Z,97972.23
2019-05-22T11:10:08.484Z,97973.26
2019-05-22T11:12:36.917Z,97973.16
2019-05-22T11:15:07.558Z,97969.03
2019-05-22T11:17:36.001Z,97972.23
2019-05-22T11:20:08.829Z,97974.86
2019-05-22T11:22:37.986Z,97969.51
2019-05-22T11:25:09.603Z,97969.27
2019-05-22T11:27:38.962Z,97964.59
2019-05-22T11:30:08.934Z,97957.25
2019-05-22T11:32:37.461Z,97968.88
2019-05-22T11:35:08.431Z,97970.91
2019-05-22T11:37:37.571Z,97968.94
2019-05-22T11:40:07.815Z,97973.84
2019-05-22T11:42:38.086Z,97965.41
2019-05-22T11:45:12.100Z,97972.85
2019-05-22T11:47:41.956Z,97970.67
2019-05-22T11:50:12.187Z,97968.83
2019-05-22T11:52:41.805Z,97977.53
2019-05-22T11:55:11.001Z,97974.20
2019-05-22T11:57:40.155Z,97970.55
2019-05-22T12:00:10.036Z,97968.13
2019-05-22T12:02:39.976Z,97976.31
2019-05-22T12:05:10.550Z,97978.24
2019-05-22T12:07:43.515Z,97973.22
2019-05-22T12:10:13.036Z,97978.12
2019-05-22T12:12:41.690Z,97976.46
2019-05-22T12:15:11.861Z,97978.27
2019-05-22T12:17:40.355Z,97982.41
2019-05-22T12:20:11.456Z,97977.67
2019-05-22T12:22:40.433Z,97975.58
2019-05-22T12:25:10.877Z,97978.69
2019-05-22T12:27:39.217Z,97977.11
2019-05-22T12:30:08.142Z,97971.35
2019-05-22T12:32:38.066Z,97972.41
2019-05-22T12:35:07.289Z,97972.09
2019-05-22T12:37:36.186Z,97970.49
2019-05-22T12:40:07.865Z,97961.58
2019-05-22T12:42:36.351Z,97975.33
2019-05-22T12:45:10.005Z,97973.02
2019-05-22T12:47:38.630Z,97978.63
2019-05-22T12:50:10.352Z,97975.48
2019-05-22T12:52:38.867Z,97972.38
2019-05-22T12:55:07.448Z,97972.25
2019-05-22T12:57:35.784Z,97973.13
2019-05-22T13:00:07.492Z,97971.63
2019-05-22T13:02:36.873Z,97972.77
2019-05-22T13:05:07.887Z,97974.26
2019-05-22T13:07:36.362Z,97974.11
2019-05-22T13:10:06.962Z,97972.12
2019-05-22T13:12:35.650Z,97982.30
2019-05-22T13:15:10.307Z,97971.76
2019-05-22T13:17:37.078Z,97966.36
2019-05-22T13:20:08.148Z,97976.30
2019-05-22T13:22:38.087Z,97972.36
2019-05-22T13:25:10.249Z,97980.55
2019-05-22T13:27:39.669Z,97973.78
2019-05-22T13:30:11.607Z,97968.05
2019-05-22T13:32:41.781Z,97968.58
2019-05-22T13:35:10.284Z,97965.20
2019-05-22T13:37:40.040Z,97967.10
2019-05-22T13:40:26.087Z,97973.72
2019-05-22T13:42:39.732Z,97972.48
2019-05-22T13:45:26.018Z,97971.73
2019-05-22T13:47:39.009Z,97964.24
2019-05-22T13:50:08.294Z,97965.41
2019-05-22T13:52:37.951Z,97973.78
2019-05-22T13:55:07.788Z,97971.14
2019-05-22T13:57:36.681Z,97972.64
2019-05-22T14:00:10.084Z,97968.53
2019-05-22T14:02:38.982Z,97970.17
2019-05-22T14:05:08.168Z,97979.26
2019-05-22T14:07:36.594Z,97973.86
2019-05-22T14:10:08.975Z,97978.55
2019-05-22T14:12:37.258Z,97980.14
2019-05-22T14:15:06.949Z,97974.00
2019-05-22T14:17:35.459Z,97973.81
2019-05-22T14:20:05.059Z,97972.45
2019-05-22T14:22:33.405Z,97972.56
2019-05-22T14:25:01.829Z,97967.25
2019-05-22T14:27:30.216Z,97970.74
2019-05-22T14:29:58.735Z,97964.70
2019-05-22T14:32:29.853Z,97964.13
2019-05-22T14:34:57.913Z,97966.65
2019-05-22T14:37:26.975Z,97964.70
2019-05-22T14:39:56.785Z,97961.52
2019-05-22T14:42:25.296Z,97969.47
2019-05-22T14:44:53.975Z,97963.55
2019-05-22T14:47:22.847Z,97965.41
2019-05-22T14:49:52.062Z,97959.72
2019-05-22T14:52:20.928Z,97957.19
2019-05-22T14:54:49.304Z,97957.77
2019-05-22T14:57:17.912Z,97962.09
2019-05-22T14:59:46.361Z,97957.16
2019-05-22T15:02:15.513Z,97959.08
2019-05-22T15:04:43.886Z,97954.68
2019-05-22T15:07:12.343Z,97958.53
2019-05-22T15:09:40.917Z,97965.33
2019-05-22T15:12:09.418Z,97959.43
2019-05-22T15:14:37.895Z,97952.20
2019-05-22T15:17:07.006Z,97962.61
2019-05-22T15:19:35.905Z,97957.15
2019-05-22T15:22:05.345Z,97958.25
2019-05-22T15:24:33.770Z,97952.55
2019-05-22T15:27:03.405Z,97958.29
2019-05-22T15:29:31.951Z,97950.56
2019-05-22T15:32:00.448Z,97949.16
2019-05-22T15:34:30.351Z,97954.03
2019-05-22T15:36:59.301Z,97953.83
2019-05-22T15:39:28.586Z,97955.27
2019-05-22T15:41:57.620Z,97949.70
2019-05-22T15:44:27.366Z,97953.34
2019-05-22T15:46:55.937Z,97955.73
2019-05-22T15:49:25.852Z,97950.58
2019-05-22T15:51:54.258Z,97955.83
2019-05-22T15:54:22.761Z,97950.12
2019-05-22T15:56:51.111Z,97952.16
2019-05-22T15:59:21.996Z,97956.48
2019-05-22T16:01:51.252Z,97958.98
2019-05-22T16:04:23.222Z,97961.72
2019-05-22T16:06:52.371Z,97963.73
2019-05-22T16:09:21.816Z,97958.27
2019-05-22T16:11:52.417Z,97956.56
2019-05-22T16:14:22.031Z,97959.06
2019-05-22T16:16:51.458Z,97957.85
2019-05-22T16:19:22.380Z,97956.97
2019-05-22T16:21:53.378Z,97957.05
2019-05-22T16:24:22.423Z,97957.73
2019-05-22T16:26:52.637Z,97956.63
2019-05-22T16:29:24.070Z,97953.41
2019-05-22T16:31:53.899Z,97949.55
2019-05-22T16:34:28.319Z,97956.06
2019-05-22T16:36:55.674Z,97952.28
2019-05-22T16:39:24.900Z,97956.05
2019-05-22T16:41:53.987Z,97958.32
2019-05-22T16:44:22.498Z,97955.03
2019-05-22T16:46:51.739Z,97954.02
2019-05-22T16:49:20.806Z,97956.59
2019-05-22T16:51:49.850Z,97964.69
2019-05-22T16:54:21.198Z,97958.09
